Aquarius Voyager — C6UC3 — position and weather

sailwx.info

Track history (hours):
 
Tides and Currents Weather Stations Pressure Air Temp Water Temp Dewpoint Dewpoint Depression Visibility Wind Speed Wind Dir Waves Ship Positions

Aquarius Voyager

Last reported at 2018-Feb-21 15:59 UTC. Time now 2018-Feb-23 07:00 UTC.
Position N 01°15' E 104°04'.

Type: Tanker. MMSI: 311813000.

Date/timePositionNaut miles runAvg speedWind from/ knotsBaromVisibWave heightAir tempDewpointWater temp
2018-Feb-21 15:59N 01°15' E 104°04'2 3.0
2018-Feb-21 15:28N 01°15' E 104°02'1 2.0
2018-Feb-21 14:59N 01°14' E 104°01'2 3.1
2018-Feb-21 14:29N 01°14' E 103°60'4 7.4
2018-Feb-21 13:59N 01°13' E 103°56'612.3
2018-Feb-21 13:29N 01°11' E 103°50'4 9.1
2018-Feb-21 13:00N 01°09' E 103°46'611.1
2018-Feb-21 12:30N 01°05' E 103°42'611.3
2018-Feb-21 12:00N 01°04' E 103°37'611.9
2018-Feb-21 11:30N 01°07' E 103°32'611.9
2018-Feb-21 10:59N 01°11' E 103°27'611.8
2018-Feb-21 10:30N 01°14' E 103°22'  
2018-Feb-17 12:00N 04°48' E 092°48'   030 / 151013.010.8 30.024.630.0
2018-Feb-13 12:00S 09°54' E 078°00'   180 / 51017.510.8 30.026.030.0
Track history (hours):
 
Tides and Currents Weather Stations Pressure Air Temp Water Temp Dewpoint Dewpoint Depression Visibility Wind Speed Wind Dir Waves Ship Positions

Aquarius Voyager

Last reported at 2018-Feb-21 15:59 UTC. Time now 2018-Feb-23 07:00 UTC.
Position N 01°15' E 104°04'.

Type: Tanker. MMSI: 311813000.

Date/timePositionNaut miles runAvg speedWind from/ knotsBaromVisibWave heightAir tempDewpointWater temp
2018-Feb-21 15:59N 01°15' E 104°04'2 3.0
2018-Feb-21 15:28N 01°15' E 104°02'1 2.0
2018-Feb-21 14:59N 01°14' E 104°01'2 3.1
2018-Feb-21 14:29N 01°14' E 103°60'4 7.4
2018-Feb-21 13:59N 01°13' E 103°56'612.3
2018-Feb-21 13:29N 01°11' E 103°50'4 9.1
2018-Feb-21 13:00N 01°09' E 103°46'611.1
2018-Feb-21 12:30N 01°05' E 103°42'611.3
2018-Feb-21 12:00N 01°04' E 103°37'611.9
2018-Feb-21 11:30N 01°07' E 103°32'611.9
2018-Feb-21 10:59N 01°11' E 103°27'611.8
2018-Feb-21 10:30N 01°14' E 103°22'  
2018-Feb-17 12:00N 04°48' E 092°48'   030 / 151013.010.8 30.024.630.0
2018-Feb-13 12:00S 09°54' E 078°00'   180 / 51017.510.8 30.026.030.0

Dump ship's entire track history